Metar Cercanos

 

LEPA - Palma De Mallorc, Spain
Distance from station: ONO 38km
Actualización: 18/08/2018 09:30
Few Clouds
Few Clouds
 Viento del NE
Viento: NE 9 km/h
Temperatura: 24°C
Rocío: 19°C
Humedad: 74%
Barómetro: 1019 hPa
Clouds: Few Clouds
Visibility: 10 km
Cloud details: Few Clouds 762 m
2018/08/18 07:30 LEPA 180730Z 04005KT 010V080 9999 FEW025TCU 24/19 Q1019 TEMPO TSRA FEW025CB
LEMH - Mahon/Menorca Is, Spain
Distance from station: ENE 105km
Actualización: 18/08/2018 09:30
Muy nuboso
Muy nuboso
 Viento del NNE
Viento: NNE 22 km/h
Temperatura: 24°C
Rocío: 19°C
Humedad: 74%
Barómetro: 1018 hPa
Clouds: Muy nuboso
Visibility: 10 km
Cloud details: Parcialmente nuboso 762 m
Muy nuboso 1067 m
2018/08/18 07:30 LEMH 180730Z 02012KT 9999 SCT025 BKN035 24/19 Q1018
 
LEIB - Ibiza/Es Codola, Spain
Distance from station: OSO 165km
Actualización: 18/08/2018 09:30
Parcialmente nuboso
Parcialmente nuboso
 Viento del ENE
Viento: ENE 7 km/h
Temperatura: 25°C
Rocío: 20°C
Humedad: 74%
Barómetro: 1018 hPa
Clouds: Parcialmente nuboso
Visibility: 10 km
Cloud details: Few Clouds 762 m
Parcialmente nuboso 914 m
2018/08/18 07:30 LEIB 180730Z 06004KT 030V110 9999 FEW025 SCT030TCU 25/20 Q1018 TEMPO 4000 SHRA FEW025CB
LEBL - Barcelona Airpor, Spain
Distance from station: NNO 225km
Actualización: 18/08/2018 09:30
Few Clouds
Few Clouds
 Viento del NNO
Viento: NNO 24 km/h
Temperatura: 21°C
Rocío: 15°C
Humedad: 69%
Barómetro: 1019 hPa
Clouds: Few Clouds
Visibility: 10 km
Cloud details: Few Clouds 1524 m
2018/08/18 07:30 LEBL 180730Z 34013KT 9999 FEW050 21/15 Q1019 NOSIG
 
LEVC - Valencia (civ/Mi, Spain
Distance from station: NO 188km
Actualización: 18/08/2018 09:30
Few Clouds
Few Clouds
 Viento del NE
Viento: NE 11 km/h
Temperatura: 25°C
Rocío: 15°C
Humedad: 54%
Barómetro: 1019 hPa
Clouds: Few Clouds
Visibility: 10 km
Cloud details: Few Clouds 1067 m
2018/08/18 07:30 LEVC 180730Z 04006KT 9999 FEW035 25/15 Q1019 NOSIG
LEGE - Gerona/Costa Bra, Spain
Distance from station: N 276km
Actualización: 18/08/2018 10:00
Parcialmente nuboso
Parcialmente nuboso
 Viento del calm
Viento: Calma
Temperatura: 21°C
Rocío: 17°C
Humedad: 78%
Barómetro: 1019 hPa
Clouds: Parcialmente nuboso
Visibility: 10 km
Cloud details: Few Clouds 1524 m
Parcialmente nuboso 2134 m
2018/08/18 08:00 LEGE 180800Z 00000KT 9999 FEW050 SCT070 21/17 Q1019
 
LEAL - Alicante/El Alte, Spain
Distance from station: OSO 344km
Actualización: 18/08/2018 10:00
Parcialmente nuboso
Parcialmente nuboso
 Viento del NNE
Viento: NNE 2 km/h
Temperatura: 26°C
Rocío: 19°C
Humedad: 65%
Barómetro: 1019 hPa
Clouds: Parcialmente nuboso
Visibility: 10 km
Cloud details: Parcialmente nuboso 762 m
2018/08/18 08:00 LEAL 180800Z 02001KT 9999 SCT025 26/19 Q1019 NOSIG
LEAM - Almeria Airport, Spain
Distance from station: SSO 56km
Actualización: 18/08/2018 10:00
Few Clouds
Few Clouds
 Viento del ENE
Viento: ENE 22 km/h
Temperatura: 28°C
Indice Calor: 29°C
Rocío: 20°C
Humedad: 62%
Barómetro: 1017 hPa
Clouds: Few Clouds
Visibility: 10 km
Cloud details: Few Clouds 762 m
2018/08/18 08:00 LEAM 180800Z 06012KT 030V100 9999 FEW025 28/20 Q1017
 
LEZG - Zaragoza (mil/Ci, Spain
Distance from station: NO 431km
Actualización: 18/08/2018 10:00
Despejado
Despejado
 Viento del ONO
Viento: ONO 24 km/h
Resumen: Despejado
Visibility: greater than 10 km
2018/08/18 08:00 LEZG 180800Z 30013KT 270V330 CAVOK 18/1
LEMD - Madrid/Barajas, Spain
Distance from station: ONO 234km
Actualización: 18/08/2018 10:00
Few Clouds
Few Clouds
 Viento del NNE
Viento: NNE 9 km/h
Temperatura: 20°C
Rocío: 10°C
Humedad: 53%
Barómetro: 1021 hPa
Clouds: Few Clouds
Visibility: 10 km
Cloud details: Few Clouds 1158 m
2018/08/18 08:00 LEMD 180800Z 03005KT 340V080 9999 FEW038 20/10 Q1021 NOSIG
 
LEGR - Granada Airport, Spain
Distance from station: OSO 62km
Actualización: 18/08/2018 10:00
Despejado
Despejado
 Viento del calm
Viento: Calma
Temperatura: 24°C
Rocío: 16°C
Humedad: 61%
Barómetro: 1020 hPa
Resumen: Despejado
Visibility: greater than 10 km
2018/08/18 08:00 LEGR 180800Z 00000KT CAVOK 24/16 Q1020
LEMG - Malaga (civ/Mil), Spain
Distance from station: OSO 227km
Actualización: 18/08/2018 10:00
Parcialmente nuboso
Parcialmente nuboso
 Viento del ONO
Viento: ONO 9 km/h
Temperatura: 26°C
Rocío: 17°C
Humedad: 58%
Barómetro: 1018 hPa
Clouds: Parcialmente nuboso
Visibility: 10 km
Cloud details: Few Clouds 610 m
Parcialmente nuboso 762 m
2018/08/18 08:00 LEMG 180800Z 29005KT 9999 FEW020 SCT025 26/17 Q1018 NOSIG
 
LEZL - Sevilla (civ/Mil, Spain
Distance from station: S 318km
Actualización: 18/08/2018 10:00
Despejado
Despejado
 Viento del ENE
Viento: ENE 9 km/h
Temperatura: 27°C
Indice Calor: 28°C
Rocío: 16°C
Humedad: 51%
Barómetro: 1015 hPa
Resumen: Despejado
Visibility: greater than 10 km
2018/08/18 08:00 LEZL 180800Z 06005KT 030V090 CAVOK 27/16 Q1015 NOSIG
LEVT - Vitoria, Spain
Distance from station: NO 226km
Actualización: 18/08/2018 10:00
Muy nuboso
Muy nuboso
 Viento del calm
Viento: Calma
Temperatura: 14°C
Rocío: 11°C
Humedad: 82%
Barómetro: 1025 hPa
Clouds: Muy nuboso
Visibility: 10 km
Cloud details: Muy nuboso 914 m
2018/08/18 08:00 LEVT 180800Z 00000KT 9999 BKN030 14/11 Q1025
 
LEBB - Bilbao/Sondica, Spain
Distance from station: NNO 235km
Actualización: 18/08/2018 10:00
Muy nuboso
Muy nuboso
 Viento del ESE
Viento: ESE 6 km/h
Temperatura: 15°C
Rocío: 14°C
Humedad: 94%
Barómetro: 1025 hPa
Clouds: Muy nuboso
Visibility: 10 km
Cloud details: Few Clouds 1372 m
Muy nuboso 1737 m
2018/08/18 08:00 LEBB 180800Z 11003KT 050V160 9999 FEW045 BKN057 15/14 Q1025 NOSIG
LESO - San Sebastian/Fu, Spain
Distance from station: N 231km
Actualización: 18/08/2018 10:00
Parcialmente nuboso
Parcialmente nuboso
 Viento del SSE
Viento: SSE 6 km/h
Temperatura: 19°C
Rocío: 14°C
Humedad: 73%
Barómetro: 1024 hPa
Clouds: Parcialmente nuboso
Visibility: 10 km
Cloud details: Parcialmente nuboso 914 m
2018/08/18 08:00 LESO 180800Z 15003KT 120V190 9999 SCT030 19/14 Q1024
 
LEVD - Valladolid(Mil/C, Spain
Distance from station: ONO 239km
Actualización: 18/08/2018 10:00
Despejado
Despejado
 Viento del NE
Viento: NE 28 km/h
Temperatura: 13°C
Rocío: 7°C
Humedad: 67%
Barómetro: 1023 hPa
Resumen: Despejado
Visibility: greater than 10 km
2018/08/18 08:00 LEVD 180800Z 05015KT CAVOK 13/07 Q1023
LESA - Salamanca (civ/M, Spain
Distance from station: ONO 349km
Actualización: 18/08/2018 10:00
Despejado
Despejado
 Viento del ENE
Viento: ENE 13 km/h
Temperatura: 14°C
Rocío: 8°C
Humedad: 67%
Barómetro: 1023 hPa
Resumen: Despejado
Visibility: greater than 10 km
2018/08/18 08:00 LESA 180800Z 07007KT 030V100 CAVOK 14/08 Q1023
 
LEXJ - Santander/Paraya, Spain
Distance from station: NNO 247km
Actualización: 18/08/2018 10:00
Few Clouds
Few Clouds
 Viento del S
Viento: S 4 km/h
Temperatura: 19°C
Rocío: 16°C
Humedad: 83%
Barómetro: 1024 hPa
Clouds: Few Clouds
Visibility: 10 km
Cloud details: Few Clouds 1219 m
2018/08/18 08:00 LEXJ 180800Z 19002KT 9999 FEW040 19/16 Q1024
LEAS - Asturias/Aviles, Spain
Distance from station: NO 214km
Actualización: 18/08/2018 10:00
Despejado
Despejado
 Viento del SE
Viento: SE 9 km/h
Temperatura: 19°C
Rocío: 14°C
Humedad: 73%
Barómetro: 1024 hPa
Resumen: Despejado
Visibility: greater than 10 km
2018/08/18 08:00 LEAS 180800Z 13005KT 080V170 CAVOK 19/14 Q1024 NOSIG
 
LECO - La Coruna/Alvedr, Spain
Distance from station: ONO 222km
Actualización: 18/08/2018 10:00
Despejado
Despejado
 Viento del varies
Viento: varies 4 km/h
Temperatura: 18°C
Rocío: 13°C
Humedad: 73%
Barómetro: 1022 hPa
Resumen: Despejado
Visibility: greater than 10 km
2018/08/18 08:00 LECO 180800Z VRB02KT CAVOK 18/13 Q1022 NOSIG
LEVX - Vigo/Peinador, Spain
Distance from station: O 214km
Actualización: 18/08/2018 10:00
Despejado
Despejado
 Viento del SSO
Viento: SSO 9 km/h
Temperatura: 19°C
Rocío: 13°C
Humedad: 68%
Barómetro: 1019 hPa
Resumen: Despejado
Visibility: greater than 10 km
2018/08/18 08:00 LEVX 180800Z 20005KT 110V240 CAVOK 19/13 Q1019 NOSIG